Bledsoe, Kentucky
Current Conditions -  °F | °C
As of 10:15 AM on Saturday 25 Oct 2014 (Local Time) from KI35 Reporting Station
Overcast Overcast  
Wind Chill: 41°   Ceiling: 100
Heat Index: 41°   Visibility: 0.5mi
Dew Point: 41°   Wind: 0mph
Humidity: 100%   Direction: NA
Pressure: 30.12"   Gusts: NA
Location:  36.87°N, 83.42°W
Report Text: KI35 251415Z AUTO 00000KT 1/2SM OVC001 05/05 A3012 RMK AO1 VIS 1/4V1 1/4
Loading
Personal Weather Stations






























Interactive Weather Map
Tropical Storm Tracking
New forecast layout! Learn more

10-Day Weather Forecast

Advertisements
Track Severe Weather on mobile